KBFL/BFL METAR and TAF weather

Enter ICAO airport designator
Station Type Date Time Source
KBFL METAR 2020/04/02 19:54 UTC NOAA

KBFL 021954Z 31008G15KT 10SM CLR 17/M02 A3005 RMK AO2 SLP172 T01721022


Station Type Date Time Source
KBFL Decoded METAR 2020/04/02 19:54 UTC NOAA

BAKERSFIELD MEADOWS FIELD, CA, United States (KBFL) 35-26N 119-03W 151M
Apr 02, 2020 - 03:54 PM EDT / 2020.04.02 1954 UTC
Wind: from the NW (310 degrees) at 9 MPH (8 KT) gusting to 17 MPH (15 KT):0
Visibility: 10 mile(s):0
Sky conditions: clear
Temperature: 63.0 F (17.2 C)
Dew Point: 28.0 F (-2.2 C)
Relative Humidity: 26%
Pressure (altimeter): 30.05 in. Hg (1017 hPa)
ob: KBFL 021954Z 31008G15KT 10SM CLR 17/M02 A3005 RMK AO2 SLP172 T01721022
cycle: 20

Station Type Date Time Source
KBFL TAF 2020/04/02 20:54 UTC NOAA

TAF
AMD KBFL 021951Z 0220/0318 30007G13KT P6SM FEW050
FM030300 35004KT P6SM SKC
FM031200 32004KT P6SM BKN250

Example: see airport list